createdAt,value
2024-01-16T00:00:19.716Z,0.50
2024-01-16T00:01:19.798Z,0.51
2024-01-16T00:02:19.802Z,0.50
2024-01-16T00:03:19.806Z,0.51
2024-01-16T00:04:19.893Z,0.51
2024-01-16T00:05:19.888Z,0.51
2024-01-16T00:06:19.907Z,0.51
2024-01-16T00:07:19.954Z,0.52
2024-01-16T00:08:20.001Z,0.51
2024-01-16T00:09:20.040Z,0.52
2024-01-16T00:10:20.031Z,0.52
2024-01-16T00:11:20.113Z,0.52
2024-01-16T00:12:20.068Z,0.51
2024-01-16T00:13:20.110Z,0.50
2024-01-16T00:14:20.171Z,0.52
2024-01-16T00:15:20.223Z,0.52
2024-01-16T00:16:20.239Z,0.50
2024-01-16T00:17:20.316Z,0.51
2024-01-16T00:18:20.523Z,0.52
2024-01-16T00:19:20.477Z,0.50
2024-01-16T00:20:20.420Z,0.52
2024-01-16T00:21:20.410Z,0.52
2024-01-16T00:22:20.412Z,0.50
2024-01-16T00:23:20.467Z,0.52
2024-01-16T00:24:20.524Z,0.52
2024-01-16T00:25:20.578Z,0.51
2024-01-16T00:26:20.584Z,0.50
2024-01-16T00:27:20.582Z,0.52
2024-01-16T00:28:20.614Z,0.52
2024-01-16T00:29:20.985Z,0.52
2024-01-16T00:30:20.711Z,0.52
2024-01-16T00:31:20.721Z,0.51
2024-01-16T00:32:20.846Z,0.52
2024-01-16T00:33:20.956Z,0.51
2024-01-16T00:34:20.876Z,0.52
2024-01-16T00:35:20.933Z,0.51
2024-01-16T00:36:20.934Z,0.51
2024-01-16T00:37:20.960Z,0.51
2024-01-16T00:38:21.026Z,0.52
2024-01-16T00:39:21.005Z,0.51
2024-01-16T00:40:21.067Z,0.51
2024-01-16T00:41:21.140Z,0.51
2024-01-16T00:42:21.145Z,0.51
2024-01-16T00:43:21.174Z,0.51
2024-01-16T00:44:21.266Z,0.51
2024-01-16T00:45:21.248Z,0.51
2024-01-16T00:46:21.304Z,0.51
2024-01-16T00:47:21.405Z,0.52
2024-01-16T00:48:21.450Z,0.52
2024-01-16T00:49:22.166Z,0.52
2024-01-16T00:50:21.488Z,0.51
2024-01-16T00:51:21.523Z,0.51
2024-01-16T00:52:21.521Z,0.52
2024-01-16T00:53:21.570Z,0.51
2024-01-16T00:54:21.618Z,0.51
2024-01-16T00:55:21.631Z,0.53
2024-01-16T00:56:21.724Z,0.51
2024-01-16T00:57:21.743Z,0.51
2024-01-16T00:58:21.750Z,0.52
2024-01-16T00:59:21.824Z,0.51
2024-01-16T01:00:21.849Z,0.51
2024-01-16T01:01:21.914Z,0.52
2024-01-16T01:02:21.969Z,0.51
2024-01-16T01:03:22.030Z,0.52
2024-01-16T01:04:22.955Z,0.53
2024-01-16T01:05:22.106Z,0.52
2024-01-16T01:06:22.197Z,0.52
2024-01-16T01:07:22.151Z,0.53
2024-01-16T01:08:22.219Z,0.51
2024-01-16T01:09:22.239Z,0.52
2024-01-16T01:10:22.253Z,0.52
2024-01-16T01:11:22.267Z,0.51
2024-01-16T01:12:22.287Z,0.51
2024-01-16T01:13:22.361Z,0.51
2024-01-16T01:14:22.577Z,0.51
2024-01-16T01:15:22.473Z,0.51
2024-01-16T01:16:22.433Z,0.52
2024-01-16T01:17:22.551Z,0.51
2024-01-16T01:18:22.658Z,0.53
2024-01-16T01:19:22.574Z,0.52
2024-01-16T01:20:22.637Z,0.52
2024-01-16T01:21:22.622Z,0.51
2024-01-16T01:22:22.620Z,0.53
2024-01-16T01:23:22.724Z,0.52
2024-01-16T01:24:22.747Z,0.52
2024-01-16T01:25:22.803Z,0.50
2024-01-16T01:26:22.857Z,0.51
2024-01-16T01:27:22.811Z,0.53
2024-01-16T01:28:22.861Z,0.52
2024-01-16T01:29:23.022Z,0.51
2024-01-16T01:30:22.953Z,0.51
2024-01-16T01:31:23.006Z,0.51
2024-01-16T01:32:23.182Z,0.52
2024-01-16T01:33:23.183Z,0.52
2024-01-16T01:34:23.172Z,0.52
2024-01-16T01:35:23.206Z,0.51
2024-01-16T01:36:23.227Z,0.51
2024-01-16T01:37:23.225Z,0.51
2024-01-16T01:38:23.320Z,0.50
2024-01-16T01:39:23.468Z,0.51
2024-01-16T01:40:23.349Z,0.52
2024-01-16T01:41:23.427Z,0.52
2024-01-16T01:42:23.482Z,0.52
2024-01-16T01:43:23.469Z,0.52
2024-01-16T01:44:23.480Z,0.52
2024-01-16T01:45:23.557Z,0.52
2024-01-16T01:46:23.589Z,0.51
2024-01-16T01:47:23.668Z,0.51
2024-01-16T01:48:23.704Z,0.52
2024-01-16T01:49:23.800Z,0.50
2024-01-16T01:50:23.815Z,0.52
2024-01-16T01:51:23.826Z,0.52
2024-01-16T01:52:23.828Z,0.51
2024-01-16T01:53:24.001Z,0.51
2024-01-16T01:54:23.978Z,0.51
2024-01-16T01:55:23.952Z,0.51
2024-01-16T01:56:24.059Z,0.51
2024-01-16T01:57:24.036Z,0.52
2024-01-16T01:58:24.079Z,0.51
2024-01-16T01:59:24.146Z,0.51
2024-01-16T02:00:24.197Z,0.51
2024-01-16T02:01:24.199Z,0.51
2024-01-16T02:02:24.273Z,0.51
2024-01-16T02:03:24.324Z,0.51
2024-01-16T02:04:24.477Z,0.51
2024-01-16T02:05:24.413Z,0.51
2024-01-16T02:06:24.447Z,0.51
2024-01-16T02:07:24.432Z,0.52
2024-01-16T02:08:24.488Z,0.52
2024-01-16T02:09:24.545Z,0.52
2024-01-16T02:10:24.559Z,0.53
2024-01-16T02:11:24.667Z,0.51
2024-01-16T02:12:25.910Z,0.51
2024-01-16T02:13:24.821Z,0.51
2024-01-16T02:14:24.759Z,0.52
2024-01-16T02:15:24.753Z,0.52
2024-01-16T02:16:24.805Z,0.52
2024-01-16T02:17:24.918Z,0.52
2024-01-16T02:18:24.934Z,0.52
2024-01-16T02:19:24.948Z,0.52
2024-01-16T02:20:24.978Z,0.52
2024-01-16T02:21:24.987Z,0.52
2024-01-16T02:22:25.024Z,0.51
2024-01-16T02:23:25.128Z,0.52
2024-01-16T02:24:25.174Z,0.52
2024-01-16T02:25:25.177Z,0.52
2024-01-16T02:26:25.231Z,0.52
2024-01-16T02:27:25.208Z,0.53
2024-01-16T02:28:25.263Z,0.52
2024-01-16T02:29:25.358Z,0.52
2024-01-16T02:30:25.355Z,0.52
2024-01-16T02:31:25.463Z,0.53
2024-01-16T02:32:25.494Z,0.52
2024-01-16T02:33:25.572Z,0.53
2024-01-16T02:34:26.008Z,0.51
2024-01-16T02:35:25.596Z,0.51
2024-01-16T02:36:25.600Z,0.51
2024-01-16T02:37:25.709Z,0.52
2024-01-16T02:38:25.797Z,0.52
2024-01-16T02:39:25.745Z,0.51
2024-01-16T02:40:25.871Z,0.52
2024-01-16T02:41:25.845Z,0.53
2024-01-16T02:42:25.837Z,0.53
2024-01-16T02:43:25.891Z,0.51
2024-01-16T02:44:25.965Z,0.52
2024-01-16T02:45:26.028Z,0.51
2024-01-16T02:46:26.023Z,0.53
2024-01-16T02:47:26.137Z,0.53
2024-01-16T02:48:26.134Z,0.53
2024-01-16T02:49:26.182Z,0.53
2024-01-16T02:50:26.272Z,0.52
2024-01-16T02:51:26.293Z,0.52
2024-01-16T02:52:26.296Z,0.53
2024-01-16T02:53:26.373Z,0.51
2024-01-16T02:54:26.389Z,0.52
2024-01-16T02:55:26.432Z,0.53
2024-01-16T02:56:26.527Z,0.50
2024-01-16T02:57:26.518Z,0.52
2024-01-16T02:58:26.551Z,0.51
2024-01-16T02:59:27.002Z,0.52
2024-01-16T03:00:26.679Z,0.52
2024-01-16T03:01:26.686Z,0.52
2024-01-16T03:02:26.799Z,0.52
2024-01-16T03:03:26.832Z,0.52
2024-01-16T03:04:26.868Z,0.52
2024-01-16T03:05:26.938Z,0.53
2024-01-16T03:06:27.147Z,0.52
2024-01-16T03:07:26.996Z,0.52
2024-01-16T03:08:27.047Z,0.52
2024-01-16T03:09:27.512Z,0.51
2024-01-16T03:10:27.120Z,0.51
2024-01-16T03:11:27.217Z,0.51
2024-01-16T03:12:27.246Z,0.51
2024-01-16T03:13:27.250Z,0.52
2024-01-16T03:14:27.341Z,0.51
2024-01-16T03:15:27.372Z,0.52
2024-01-16T03:16:27.441Z,0.52
2024-01-16T03:17:27.551Z,0.50
2024-01-16T03:18:27.641Z,0.52
2024-01-16T03:19:27.662Z,0.51
2024-01-16T03:20:27.643Z,0.52
2024-01-16T03:21:27.656Z,0.50
2024-01-16T03:22:27.679Z,0.52
2024-01-16T03:23:27.752Z,0.51
2024-01-16T03:24:27.789Z,0.52
2024-01-16T03:25:27.804Z,0.52
2024-01-16T03:26:27.918Z,0.51
2024-01-16T03:27:27.946Z,0.52
2024-01-16T03:28:27.982Z,0.52
2024-01-16T03:29:28.079Z,0.52
2024-01-16T03:30:28.244Z,0.51
2024-01-16T03:31:28.106Z,0.52
2024-01-16T03:32:28.245Z,0.52
2024-01-16T03:33:28.282Z,0.53
2024-01-16T03:34:28.317Z,0.52
2024-01-16T03:35:28.351Z,0.53
2024-01-16T03:36:28.316Z,0.52
2024-01-16T03:37:28.392Z,0.52
2024-01-16T03:38:28.472Z,0.51
2024-01-16T03:39:28.508Z,0.51
2024-01-16T03:40:28.487Z,0.52
2024-01-16T03:41:28.571Z,0.52
2024-01-16T03:42:28.602Z,0.51
2024-01-16T03:43:28.623Z,0.52
2024-01-16T03:44:29.226Z,0.50
2024-01-16T03:45:28.752Z,0.52
2024-01-16T03:46:28.801Z,0.51
2024-01-16T03:47:28.845Z,0.52
2024-01-16T03:48:28.976Z,0.51
2024-01-16T03:49:29.020Z,0.52
2024-01-16T03:50:29.011Z,0.51
2024-01-16T03:51:28.995Z,0.52
2024-01-16T03:52:29.008Z,0.52
2024-01-16T03:53:29.127Z,0.51
2024-01-16T03:54:29.163Z,0.52
2024-01-16T03:55:29.162Z,0.52
2024-01-16T03:56:29.282Z,0.52
2024-01-16T03:57:29.269Z,0.51
2024-01-16T03:58:29.258Z,0.51
2024-01-16T03:59:29.427Z,0.52
2024-01-16T04:00:29.436Z,0.51
2024-01-16T04:01:29.413Z,0.51
2024-01-16T04:02:29.488Z,0.52
2024-01-16T04:03:29.514Z,0.52
2024-01-16T04:04:29.578Z,0.52
2024-01-16T04:05:29.621Z,0.51
2024-01-16T04:06:29.659Z,0.52
2024-01-16T04:07:29.697Z,0.52
2024-01-16T04:08:29.830Z,0.52
2024-01-16T04:09:30.083Z,0.52
2024-01-16T04:10:29.835Z,0.52
2024-01-16T04:11:29.926Z,0.52
2024-01-16T04:12:29.930Z,0.52
2024-01-16T04:13:29.998Z,0.51
2024-01-16T04:14:30.036Z,0.52
2024-01-16T04:15:30.072Z,0.53
2024-01-16T04:16:30.110Z,0.51
2024-01-16T04:17:30.212Z,0.51
2024-01-16T04:18:30.267Z,0.51
2024-01-16T04:19:30.315Z,0.52
2024-01-16T04:20:30.336Z,0.51
2024-01-16T04:21:30.365Z,0.51
2024-01-16T04:22:30.435Z,0.50
2024-01-16T04:23:30.558Z,0.51
2024-01-16T04:24:30.493Z,0.52
2024-01-16T04:25:30.531Z,0.52
2024-01-16T04:26:30.613Z,0.51
2024-01-16T04:27:30.630Z,0.51
2024-01-16T04:28:30.718Z,0.51
2024-01-16T04:29:30.765Z,0.52
2024-01-16T04:30:30.831Z,0.52
2024-01-16T04:31:30.836Z,0.52
2024-01-16T04:32:30.958Z,0.51
2024-01-16T04:33:31.124Z,0.51
2024-01-16T04:34:31.093Z,0.52
2024-01-16T04:35:31.043Z,0.52
2024-01-16T04:36:31.034Z,0.52
2024-01-16T04:37:31.122Z,0.51
2024-01-16T04:38:31.226Z,0.51
2024-01-16T04:39:31.261Z,0.51
2024-01-16T04:40:31.269Z,0.52
2024-01-16T04:41:31.334Z,0.52
2024-01-16T04:42:31.376Z,0.52
2024-01-16T04:43:31.433Z,0.52
2024-01-16T04:44:31.511Z,0.51
2024-01-16T04:45:31.498Z,0.52
2024-01-16T04:46:31.544Z,0.52
2024-01-16T04:47:31.749Z,0.53
2024-01-16T04:48:31.714Z,0.52
2024-01-16T04:49:31.723Z,0.52
2024-01-16T04:50:39.191Z,0.50
2024-01-16T04:51:39.020Z,0.50
2024-01-16T04:52:39.022Z,0.50
2024-01-16T04:53:39.138Z,0.50
2024-01-16T04:54:39.091Z,0.50
2024-01-16T04:55:39.018Z,0.51
2024-01-16T04:56:39.037Z,0.50
2024-01-16T04:57:39.062Z,0.51
2024-01-16T04:58:39.028Z,0.51
2024-01-16T04:59:39.135Z,0.51
2024-01-16T05:00:39.102Z,0.51
2024-01-16T05:01:39.067Z,0.50
2024-01-16T05:02:39.136Z,0.51
2024-01-16T05:03:39.088Z,0.52
2024-01-16T05:04:39.057Z,0.50
2024-01-16T05:05:39.165Z,0.50
2024-01-16T05:06:39.165Z,0.51
2024-01-16T05:07:39.105Z,0.51
2024-01-16T05:08:39.098Z,0.51
2024-01-16T05:09:39.069Z,0.51
2024-01-16T05:10:39.084Z,0.51
2024-01-16T05:11:39.118Z,0.52
2024-01-16T05:12:39.075Z,0.52
2024-01-16T05:13:39.084Z,0.51
2024-01-16T05:14:39.120Z,0.53
2024-01-16T05:15:39.058Z,0.51
2024-01-16T05:16:39.044Z,0.51
2024-01-16T05:17:39.195Z,0.52
2024-01-16T05:18:39.340Z,0.51
2024-01-16T05:19:39.101Z,0.52
2024-01-16T05:20:39.099Z,0.51
2024-01-16T05:21:40.075Z,0.51
2024-01-16T05:22:39.157Z,0.51
2024-01-16T05:23:39.229Z,0.51
2024-01-16T05:24:39.709Z,0.51
2024-01-16T05:25:39.285Z,0.51
2024-01-16T05:26:39.388Z,0.51
2024-01-16T05:27:39.402Z,0.52
2024-01-16T05:28:39.543Z,0.51
2024-01-16T05:29:43.125Z,0.51
2024-01-16T05:30:40.496Z,0.51
2024-01-16T05:31:39.485Z,0.51
2024-01-16T05:32:39.536Z,0.51
2024-01-16T05:33:39.572Z,0.51
2024-01-16T05:34:39.726Z,0.51
2024-01-16T05:35:39.501Z,0.51
2024-01-16T05:36:39.484Z,0.51
2024-01-16T05:37:39.486Z,0.51
2024-01-16T05:38:39.518Z,0.50
2024-01-16T05:39:39.515Z,0.50
2024-01-16T05:40:39.476Z,0.51
2024-01-16T05:41:39.561Z,0.51
2024-01-16T05:42:39.579Z,0.51
2024-01-16T05:43:39.574Z,0.52
2024-01-16T05:44:39.675Z,0.52
2024-01-16T05:45:39.700Z,0.52
2024-01-16T05:46:39.751Z,0.52
2024-01-16T05:47:39.915Z,0.52
2024-01-16T05:48:39.959Z,0.52
2024-01-16T05:49:40.040Z,0.52
2024-01-16T05:50:40.165Z,0.52
2024-01-16T05:51:40.013Z,0.52
2024-01-16T05:52:41.302Z,0.52
2024-01-16T05:53:40.274Z,0.52
2024-01-16T05:54:40.188Z,0.53
2024-01-16T05:55:40.361Z,0.52
2024-01-16T05:56:40.307Z,0.52
2024-01-16T05:57:40.371Z,0.51
2024-01-16T05:58:40.514Z,0.53
2024-01-16T05:59:40.484Z,0.52
2024-01-16T06:00:40.541Z,0.52
2024-01-16T06:01:40.588Z,0.52
2024-01-16T06:02:40.695Z,0.53
2024-01-16T06:03:40.708Z,0.51
2024-01-16T06:04:40.823Z,0.51
2024-01-16T06:05:40.879Z,0.51
2024-01-16T06:06:40.873Z,0.52
2024-01-16T06:07:40.893Z,0.52
2024-01-16T06:08:41.058Z,0.52
2024-01-16T06:09:41.074Z,0.52
2024-01-16T06:10:41.118Z,0.52
2024-01-16T06:11:41.201Z,0.52
2024-01-16T06:12:41.201Z,0.51
2024-01-16T06:13:41.245Z,0.52
2024-01-16T06:14:41.386Z,0.51
2024-01-16T06:15:41.405Z,0.51
2024-01-16T06:16:41.404Z,0.52
2024-01-16T06:17:41.518Z,0.51
2024-01-16T06:18:41.578Z,0.53
2024-01-16T06:19:41.626Z,0.51
2024-01-16T06:20:41.681Z,0.51
2024-01-16T06:21:41.695Z,0.51
2024-01-16T06:22:41.744Z,0.52
2024-01-16T06:23:41.810Z,0.52
2024-01-16T06:24:41.827Z,0.50
2024-01-16T06:25:41.876Z,0.52
2024-01-16T06:26:41.989Z,0.51
2024-01-16T06:27:42.014Z,0.51
2024-01-16T06:28:42.094Z,0.51
2024-01-16T06:29:42.227Z,0.52
2024-01-16T06:30:42.298Z,0.52
2024-01-16T06:31:42.210Z,0.52
2024-01-16T06:32:42.442Z,0.52
2024-01-16T06:33:42.478Z,0.51
2024-01-16T06:34:42.443Z,0.51
2024-01-16T06:35:42.425Z,0.52
2024-01-16T06:36:42.466Z,0.51
2024-01-16T06:37:42.577Z,0.52
2024-01-16T06:38:42.607Z,0.52
2024-01-16T06:39:42.736Z,0.52
2024-01-16T06:40:42.694Z,0.52
2024-01-16T06:41:42.780Z,0.52
2024-01-16T06:42:42.824Z,0.52
2024-01-16T06:43:42.863Z,0.52
2024-01-16T06:44:42.996Z,0.51
2024-01-16T06:45:42.975Z,0.51
2024-01-16T06:46:43.029Z,0.51
2024-01-16T06:47:43.228Z,0.52
2024-01-16T06:48:44.296Z,0.52
2024-01-16T06:49:43.263Z,0.52
2024-01-16T06:50:43.282Z,0.52
2024-01-16T06:51:43.307Z,0.51
2024-01-16T06:52:43.340Z,0.52
2024-01-16T06:53:43.459Z,0.51
2024-01-16T06:54:43.418Z,0.52
2024-01-16T06:55:43.511Z,0.52
2024-01-16T06:56:43.581Z,0.52
2024-01-16T06:57:43.588Z,0.52
2024-01-16T06:58:43.622Z,0.52
2024-01-16T06:59:43.782Z,0.51
2024-01-16T07:00:43.813Z,0.51
2024-01-16T07:01:43.812Z,0.51
2024-01-16T07:02:43.932Z,0.51
2024-01-16T07:03:43.905Z,0.52
2024-01-16T07:04:44.174Z,0.51
2024-01-16T07:05:44.107Z,0.52
2024-01-16T07:06:44.067Z,0.52
2024-01-16T07:07:44.096Z,0.52
2024-01-16T07:08:44.222Z,0.52
2024-01-16T07:09:44.281Z,0.53
2024-01-16T07:10:44.325Z,0.52
2024-01-16T07:11:44.516Z,0.53
2024-01-16T07:12:44.390Z,0.54
2024-01-16T07:13:44.431Z,0.52
2024-01-16T07:14:44.528Z,0.53
2024-01-16T07:15:44.552Z,0.53
2024-01-16T07:16:44.648Z,0.54
2024-01-16T07:17:44.754Z,0.53
2024-01-16T07:18:48.048Z,0.53
2024-01-16T07:19:44.808Z,0.54
2024-01-16T07:20:44.700Z,0.53
2024-01-16T07:21:44.678Z,0.53
2024-01-16T07:22:44.698Z,0.53
2024-01-16T07:23:44.724Z,0.53
2024-01-16T07:24:44.707Z,0.53
2024-01-16T07:25:44.678Z,0.53
2024-01-16T07:26:44.714Z,0.53
2024-01-16T07:27:44.702Z,0.54
2024-01-16T07:28:44.700Z,0.53
2024-01-16T07:29:44.723Z,0.53
2024-01-16T07:30:44.771Z,0.52
2024-01-16T07:31:44.756Z,0.53
2024-01-16T07:32:44.908Z,0.53
2024-01-16T07:33:44.829Z,0.53
2024-01-16T07:34:45.217Z,0.54
2024-01-16T07:35:44.705Z,0.54
2024-01-16T07:36:44.706Z,0.52
2024-01-16T07:37:44.705Z,0.53
2024-01-16T07:38:44.763Z,0.53
2024-01-16T07:39:44.715Z,0.53
2024-01-16T07:40:44.727Z,0.53
2024-01-16T07:41:44.759Z,0.52
2024-01-16T07:42:44.729Z,0.53
2024-01-16T07:43:47.533Z,0.53
2024-01-16T07:44:44.764Z,0.53
2024-01-16T07:45:44.706Z,0.53
2024-01-16T07:46:44.772Z,0.53
2024-01-16T07:47:44.803Z,0.54
2024-01-16T07:48:44.815Z,0.52
2024-01-16T07:49:44.751Z,0.54
2024-01-16T07:50:44.755Z,0.53
2024-01-16T07:51:44.749Z,0.53
2024-01-16T07:52:44.703Z,0.54
2024-01-16T07:53:44.792Z,0.52
2024-01-16T07:54:44.775Z,0.54
2024-01-16T07:55:44.754Z,0.52
2024-01-16T07:56:44.776Z,0.54
2024-01-16T07:57:44.795Z,0.53
2024-01-16T07:58:44.736Z,0.53
2024-01-16T07:59:44.760Z,0.52
2024-01-16T08:00:44.775Z,0.53
2024-01-16T08:01:44.768Z,0.54
2024-01-16T08:02:44.834Z,0.54
2024-01-16T08:03:44.753Z,0.54
2024-01-16T08:04:44.765Z,0.54
2024-01-16T08:05:44.873Z,0.54
2024-01-16T08:06:44.831Z,0.54
2024-01-16T08:07:44.783Z,0.54
2024-01-16T08:08:44.801Z,0.54
2024-01-16T08:09:44.791Z,0.53
2024-01-16T08:10:44.817Z,0.55
2024-01-16T08:11:44.788Z,0.55
2024-01-16T08:12:44.777Z,0.55
2024-01-16T08:13:44.784Z,0.54
2024-01-16T08:14:45.288Z,0.56
2024-01-16T08:15:44.873Z,0.55
2024-01-16T08:16:44.880Z,0.55
2024-01-16T08:17:45.070Z,0.56
2024-01-16T08:18:45.187Z,0.55
2024-01-16T08:19:45.025Z,0.55
2024-01-16T08:20:45.107Z,0.55
2024-01-16T08:21:45.099Z,0.56
2024-01-16T08:22:45.114Z,0.57
2024-01-16T08:23:45.164Z,0.57
2024-01-16T08:24:45.225Z,0.57
2024-01-16T08:25:45.218Z,0.56
2024-01-16T08:26:45.260Z,0.55
2024-01-16T08:27:45.284Z,0.57
2024-01-16T08:28:45.302Z,0.56
2024-01-16T08:29:45.301Z,0.56
2024-01-16T08:30:45.413Z,0.57
2024-01-16T08:31:45.383Z,0.57
2024-01-16T08:32:45.534Z,0.57
2024-01-16T08:33:47.288Z,0.58
2024-01-16T08:34:47.976Z,0.57
2024-01-16T08:35:45.475Z,0.58
2024-01-16T08:36:45.469Z,0.58
2024-01-16T08:37:45.448Z,0.58
2024-01-16T08:38:45.573Z,0.58
2024-01-16T08:39:45.763Z,0.58
2024-01-16T08:40:45.541Z,0.58
2024-01-16T08:41:45.523Z,0.57
2024-01-16T08:42:45.498Z,0.59
2024-01-16T08:43:45.481Z,0.59
2024-01-16T08:44:45.834Z,0.59
2024-01-16T08:45:45.470Z,0.58
2024-01-16T08:46:45.497Z,0.59
2024-01-16T08:47:45.518Z,0.59
2024-01-16T08:48:45.660Z,0.60
2024-01-16T08:49:45.534Z,0.58
2024-01-16T08:50:45.561Z,0.60
2024-01-16T08:51:46.283Z,0.60
2024-01-16T08:52:45.631Z,0.59
2024-01-16T08:53:45.502Z,0.59
2024-01-16T08:54:45.479Z,0.58
2024-01-16T08:55:45.465Z,0.59
2024-01-16T08:56:45.553Z,0.59
2024-01-16T08:57:45.501Z,0.58
2024-01-16T08:58:45.518Z,0.59
2024-01-16T08:59:45.933Z,0.58
2024-01-16T09:00:45.532Z,0.58
2024-01-16T09:01:45.471Z,0.56
2024-01-16T09:02:46.295Z,0.58
2024-01-16T09:03:45.487Z,0.58
2024-01-16T09:04:45.880Z,0.58
2024-01-16T09:05:45.633Z,0.59
2024-01-16T09:06:45.741Z,0.59
2024-01-16T09:07:45.542Z,0.59
2024-01-16T09:08:45.649Z,0.59
2024-01-16T09:09:45.551Z,0.60
2024-01-16T09:10:45.481Z,0.61
2024-01-16T09:11:45.552Z,0.60
2024-01-16T09:12:45.507Z,0.60
2024-01-16T09:13:45.508Z,0.62
2024-01-16T09:14:45.795Z,0.61
2024-01-16T09:15:45.538Z,0.63
2024-01-16T09:16:45.548Z,0.62
2024-01-16T09:17:45.677Z,0.61
2024-01-16T09:18:45.673Z,0.62
2024-01-16T09:19:45.796Z,0.66
2024-01-16T09:20:45.570Z,0.66
2024-01-16T09:21:45.538Z,0.68
2024-01-16T09:22:45.589Z,0.68
2024-01-16T09:23:45.553Z,0.69
2024-01-16T09:24:45.779Z,0.70
2024-01-16T09:25:47.709Z,0.72
2024-01-16T09:26:45.610Z,0.72
2024-01-16T09:27:46.264Z,0.71
2024-01-16T09:28:45.562Z,0.72
2024-01-16T09:29:45.639Z,0.74
2024-01-16T09:30:45.541Z,0.73
2024-01-16T09:31:45.534Z,0.76
2024-01-16T09:32:45.591Z,0.76
2024-01-16T09:33:45.617Z,0.75
2024-01-16T09:34:45.851Z,0.75
2024-01-16T09:35:45.583Z,0.75
2024-01-16T09:36:45.568Z,0.75
2024-01-16T09:37:45.568Z,0.75
2024-01-16T09:38:45.574Z,0.76
2024-01-16T09:39:45.773Z,0.77
2024-01-16T09:40:45.576Z,0.76
2024-01-16T09:41:45.591Z,0.79
2024-01-16T09:42:45.530Z,0.81
2024-01-16T09:43:45.569Z,0.82
2024-01-16T09:44:45.798Z,0.83
2024-01-16T09:45:45.620Z,0.88
2024-01-16T09:46:45.595Z,0.90
2024-01-16T09:47:45.732Z,0.93
2024-01-16T09:48:45.747Z,1.00
2024-01-16T09:49:45.636Z,1.06
2024-01-16T09:50:45.603Z,1.11
2024-01-16T09:51:45.584Z,1.24
2024-01-16T09:52:45.562Z,1.32
2024-01-16T09:53:45.596Z,1.39
2024-01-16T09:54:45.773Z,1.40
2024-01-16T09:55:45.549Z,1.39
2024-01-16T09:56:45.595Z,1.34
2024-01-16T09:57:45.607Z,1.37
2024-01-16T09:58:45.593Z,1.37
2024-01-16T09:59:45.816Z,1.37
2024-01-16T10:00:45.656Z,1.39
2024-01-16T10:01:45.576Z,1.36
2024-01-16T10:02:45.623Z,1.41
2024-01-16T10:03:45.577Z,1.41
2024-01-16T10:04:45.790Z,1.44
2024-01-16T10:05:45.661Z,1.47
2024-01-16T10:06:45.689Z,1.48
2024-01-16T10:07:45.568Z,1.51
2024-01-16T10:08:45.605Z,1.51
2024-01-16T10:09:45.769Z,1.51
2024-01-16T10:10:49.074Z,1.53
2024-01-16T10:11:45.788Z,1.53
2024-01-16T10:12:45.664Z,1.54
2024-01-16T10:13:45.707Z,1.55
2024-01-16T10:14:45.786Z,1.57
2024-01-16T10:15:45.815Z,1.60
2024-01-16T10:16:45.676Z,1.58
2024-01-16T10:17:45.764Z,1.55
2024-01-16T10:18:45.796Z,1.61
2024-01-16T10:19:48.935Z,1.62
2024-01-16T10:20:45.698Z,1.62
2024-01-16T10:21:45.726Z,1.62
2024-01-16T10:22:45.694Z,1.63
2024-01-16T10:23:45.710Z,1.68
2024-01-16T10:24:45.796Z,1.70
2024-01-16T10:25:45.709Z,1.73
2024-01-16T10:26:45.772Z,1.75
2024-01-16T10:27:45.696Z,1.71
2024-01-16T10:28:45.699Z,1.77
2024-01-16T10:29:50.540Z,1.75
2024-01-16T10:30:46.859Z,1.75
2024-01-16T10:31:45.741Z,1.76
2024-01-16T10:32:45.856Z,1.76
2024-01-16T10:33:45.828Z,1.77
2024-01-16T10:34:45.885Z,1.81
2024-01-16T10:35:45.730Z,2.05
2024-01-16T10:36:45.768Z,2.03
2024-01-16T10:37:45.761Z,2.01
2024-01-16T10:38:45.778Z,2.03
2024-01-16T10:39:46.326Z,2.09
2024-01-16T10:40:45.803Z,2.13
2024-01-16T10:41:45.918Z,2.18
2024-01-16T10:42:45.869Z,2.21
2024-01-16T10:43:46.014Z,2.27
2024-01-16T10:44:46.436Z,2.33
2024-01-16T10:45:46.062Z,2.37
2024-01-16T10:46:46.151Z,2.38
2024-01-16T10:47:46.195Z,2.42
2024-01-16T10:48:46.596Z,2.32
2024-01-16T10:49:46.703Z,2.37
2024-01-16T10:50:46.454Z,2.38
2024-01-16T10:51:46.435Z,2.41
2024-01-16T10:52:46.515Z,2.39
2024-01-16T10:53:46.633Z,2.40
2024-01-16T10:54:46.843Z,2.43
2024-01-16T10:55:46.722Z,2.32
2024-01-16T10:56:46.768Z,2.35
2024-01-16T10:57:46.851Z,2.33
2024-01-16T10:58:46.863Z,2.30
2024-01-16T10:59:47.396Z,2.29
2024-01-16T11:00:47.008Z,2.29
2024-01-16T11:01:47.081Z,2.20
2024-01-16T11:02:47.141Z,2.20
2024-01-16T11:03:47.249Z,2.20
2024-01-16T11:04:47.327Z,2.22
2024-01-16T11:05:47.372Z,2.22
2024-01-16T11:06:47.357Z,2.26
2024-01-16T11:07:47.320Z,2.24
2024-01-16T11:08:48.464Z,2.24
2024-01-16T11:09:47.298Z,2.24
2024-01-16T11:10:47.378Z,2.24
2024-01-16T11:11:48.404Z,2.24
2024-01-16T11:12:47.296Z,2.24
2024-01-16T11:13:47.753Z,2.25
2024-01-16T11:14:47.347Z,2.20
2024-01-16T11:15:47.356Z,2.24
2024-01-16T11:16:47.320Z,2.25
2024-01-16T11:17:47.430Z,2.28
2024-01-16T11:18:47.498Z,2.22
2024-01-16T11:20:01.670Z,2.30
2024-01-16T11:21:02.431Z,2.30
2024-01-16T11:21:48.502Z,2.30
2024-01-16T11:22:47.410Z,2.31
2024-01-16T11:23:48.217Z,2.32
2024-01-16T11:24:47.813Z,2.28
2024-01-16T11:25:47.416Z,2.30
2024-01-16T11:26:47.447Z,2.23
2024-01-16T11:27:47.425Z,2.24
2024-01-16T11:28:47.429Z,2.27
2024-01-16T11:29:47.915Z,2.24
2024-01-16T11:30:47.484Z,2.34
2024-01-16T11:31:47.462Z,2.23
2024-01-16T11:32:47.489Z,2.25
2024-01-16T11:33:47.642Z,2.28
2024-01-16T11:34:47.490Z,2.23
2024-01-16T11:35:47.450Z,2.21
2024-01-16T11:36:47.417Z,2.16
2024-01-16T11:37:47.440Z,2.19
2024-01-16T11:38:47.485Z,2.20
2024-01-16T11:39:47.455Z,2.20
2024-01-16T11:40:47.439Z,2.19
2024-01-16T11:41:47.437Z,2.14
2024-01-16T11:42:47.440Z,2.17
2024-01-16T11:43:47.414Z,2.15
2024-01-16T11:44:47.553Z,2.14
2024-01-16T11:45:47.449Z,2.14
2024-01-16T11:46:47.457Z,2.12
2024-01-16T11:47:47.535Z,2.14
2024-01-16T11:48:47.544Z,2.11
2024-01-16T11:49:47.481Z,2.15
2024-01-16T11:50:47.477Z,2.12
2024-01-16T11:51:47.445Z,2.10
2024-01-16T11:52:47.446Z,2.09
2024-01-16T11:53:47.527Z,2.09
2024-01-16T11:54:47.468Z,2.03
2024-01-16T11:55:47.446Z,2.09
2024-01-16T11:56:48.939Z,2.05
2024-01-16T11:57:47.468Z,2.00
2024-01-16T11:58:47.424Z,1.98
2024-01-16T11:59:47.531Z,1.97
2024-01-16T12:00:47.501Z,2.03
2024-01-16T12:01:47.463Z,1.95
2024-01-16T12:02:47.483Z,1.90
2024-01-16T12:03:47.485Z,1.98
2024-01-16T12:04:47.476Z,1.89
2024-01-16T12:05:47.527Z,1.94
2024-01-16T12:06:47.588Z,1.87
2024-01-16T12:07:47.530Z,1.88
2024-01-16T12:08:47.554Z,1.88
2024-01-16T12:09:47.484Z,1.85
2024-01-16T12:10:47.455Z,1.83
2024-01-16T12:11:47.567Z,1.84
2024-01-16T12:12:47.439Z,1.80
2024-01-16T12:13:47.520Z,1.83
2024-01-16T12:14:47.533Z,1.77
2024-01-16T12:15:47.510Z,1.80
2024-01-16T12:16:47.559Z,1.79
2024-01-16T12:17:47.671Z,1.84
2024-01-16T12:18:49.145Z,1.78
2024-01-16T12:19:48.029Z,1.78
2024-01-16T12:20:47.649Z,1.74
2024-01-16T12:21:47.632Z,1.76
2024-01-16T12:22:47.610Z,1.76
2024-01-16T12:23:53.152Z,1.80
2024-01-16T12:24:48.649Z,1.80
2024-01-16T12:26:01.622Z,1.75
2024-01-16T12:26:48.721Z,1.80
2024-01-16T12:27:47.657Z,1.78
2024-01-16T12:28:47.655Z,1.75
2024-01-16T12:29:47.775Z,1.76
2024-01-16T12:30:47.794Z,1.77
2024-01-16T12:31:47.689Z,1.68
2024-01-16T12:32:53.586Z,1.76
2024-01-16T12:33:55.449Z,1.75
2024-01-16T12:34:48.813Z,1.76
2024-01-16T12:35:47.764Z,1.76
2024-01-16T12:36:47.717Z,1.73
2024-01-16T12:37:47.733Z,1.75
2024-01-16T12:38:47.733Z,1.74
2024-01-16T12:39:47.860Z,1.73
2024-01-16T12:40:47.723Z,1.75
2024-01-16T12:41:47.835Z,1.73
2024-01-16T12:42:47.693Z,1.72
2024-01-16T12:43:52.598Z,1.70
2024-01-16T12:44:48.774Z,1.70
2024-01-16T12:45:47.752Z,1.69
2024-01-16T12:46:47.739Z,1.71
2024-01-16T12:47:47.770Z,1.71
2024-01-16T12:48:56.342Z,1.69
2024-01-16T12:49:48.824Z,1.70
2024-01-16T12:50:47.741Z,1.70
2024-01-16T12:51:47.730Z,1.69
2024-01-16T12:52:47.715Z,1.68
2024-01-16T12:53:47.834Z,1.67
2024-01-16T12:54:47.743Z,1.66
2024-01-16T12:55:47.743Z,1.69
2024-01-16T12:56:47.768Z,1.69
2024-01-16T12:57:47.709Z,1.68
2024-01-16T12:58:47.762Z,1.69
2024-01-16T12:59:47.809Z,1.67
2024-01-16T13:00:47.812Z,1.62
2024-01-16T13:01:48.057Z,1.58
2024-01-16T13:02:47.783Z,1.57
2024-01-16T13:03:47.802Z,1.55
2024-01-16T13:04:47.776Z,1.53
2024-01-16T13:05:47.865Z,1.53
2024-01-16T13:06:47.899Z,1.50
2024-01-16T13:07:47.748Z,1.51
2024-01-16T13:08:47.881Z,1.47
2024-01-16T13:09:47.899Z,1.49
2024-01-16T13:10:47.866Z,1.48
2024-01-16T13:11:48.030Z,1.47
2024-01-16T13:12:47.959Z,1.46
2024-01-16T13:13:48.022Z,1.45
2024-01-16T13:14:48.099Z,1.43
2024-01-16T13:15:48.090Z,1.45
2024-01-16T13:16:48.114Z,1.42
2024-01-16T13:17:48.249Z,1.43
2024-01-16T13:18:48.233Z,1.39